createdAt,value
2018-04-07T00:00:55.757Z,69.23
2018-04-07T00:03:24.915Z,68.33
2018-04-07T00:05:54.060Z,68.88
2018-04-07T00:08:23.230Z,68.03
2018-04-07T00:10:52.411Z,68.07
2018-04-07T00:13:21.705Z,67.33
2018-04-07T00:15:50.745Z,67.69
2018-04-07T00:18:19.800Z,67.50
2018-04-07T00:20:48.820Z,67.67
2018-04-07T00:23:17.999Z,67.62
2018-04-07T00:25:47.157Z,68.29
2018-04-07T00:28:16.194Z,68.31
2018-04-07T00:30:45.221Z,67.49
2018-04-07T00:33:14.392Z,67.36
2018-04-07T00:35:43.702Z,67.27
2018-04-07T00:38:12.723Z,67.57
2018-04-07T00:40:41.819Z,67.40
2018-04-07T00:43:11.045Z,66.16
2018-04-07T00:45:40.133Z,66.10
2018-04-07T00:48:09.305Z,66.10
2018-04-07T00:50:38.454Z,66.32
2018-04-07T00:53:07.411Z,66.16
2018-04-07T00:55:36.618Z,66.78
2018-04-07T00:58:06.108Z,66.16
2018-04-07T01:00:35.148Z,65.69
2018-04-07T01:03:04.214Z,65.46
2018-04-07T01:05:33.316Z,65.85
2018-04-07T01:08:02.439Z,65.27
2018-04-07T01:10:31.619Z,65.88
2018-04-07T01:13:00.661Z,64.03
2018-04-07T01:15:29.713Z,65.13
2018-04-07T01:17:58.773Z,65.00
2018-04-07T01:20:28.013Z,65.87
2018-04-07T01:22:57.427Z,65.28
2018-04-07T01:25:26.502Z,65.44
2018-04-07T01:27:55.658Z,63.48
2018-04-07T01:30:25.029Z,64.33
2018-04-07T01:32:54.215Z,64.74
2018-04-07T01:35:23.281Z,64.29
2018-04-07T01:37:52.315Z,63.46
2018-04-07T01:40:21.301Z,64.40
2018-04-07T01:42:50.392Z,64.45
2018-04-07T01:45:19.561Z,64.23
2018-04-07T01:47:48.869Z,65.61
2018-04-07T01:50:18.073Z,65.11
2018-04-07T01:52:47.303Z,66.04
2018-04-07T01:55:16.627Z,66.64
2018-04-07T01:57:45.727Z,66.61
2018-04-07T02:00:14.718Z,65.09
2018-04-07T02:02:43.835Z,64.36
2018-04-07T02:05:12.960Z,64.87
2018-04-07T02:07:42.060Z,63.97
2018-04-07T02:10:11.218Z,65.41
2018-04-07T02:12:40.418Z,65.77
2018-04-07T02:15:09.880Z,66.23
2018-04-07T02:17:38.966Z,66.23
2018-04-07T02:20:08.092Z,66.41
2018-04-07T02:22:37.253Z,68.87
2018-04-07T02:25:06.386Z,70.44
2018-04-07T02:27:35.874Z,70.17
2018-04-07T02:30:04.866Z,69.92
2018-04-07T02:32:34.301Z,70.30
2018-04-07T02:35:03.414Z,70.22
2018-04-07T02:37:32.711Z,67.74
2018-04-07T02:40:02.064Z,67.49
2018-04-07T02:42:31.258Z,68.29
2018-04-07T02:45:00.298Z,68.35
2018-04-07T02:47:29.478Z,69.00
2018-04-07T02:49:58.496Z,70.01
2018-04-07T02:52:27.582Z,69.60
2018-04-07T02:54:56.685Z,69.35
2018-04-07T02:57:25.635Z,67.54
2018-04-07T02:59:55.780Z,68.18
2018-04-07T03:02:24.818Z,66.89
2018-04-07T03:04:53.834Z,67.04
2018-04-07T03:07:22.996Z,66.57
2018-04-07T03:09:51.993Z,66.51
2018-04-07T03:12:21.161Z,66.16
2018-04-07T03:14:50.384Z,64.22
2018-04-07T03:17:19.583Z,64.73
2018-04-07T03:19:48.813Z,64.99
2018-04-07T03:22:17.865Z,65.43
2018-04-07T03:24:46.970Z,64.53
2018-04-07T03:27:16.099Z,65.18
2018-04-07T03:29:45.254Z,65.96
2018-04-07T03:32:14.511Z,66.28
2018-04-07T03:34:43.873Z,66.08
2018-04-07T03:37:13.062Z,66.50
2018-04-07T03:39:42.325Z,68.41
2018-04-07T03:42:11.520Z,68.66
2018-04-07T03:44:40.574Z,68.88
2018-04-07T03:47:10.381Z,70.25
2018-04-07T03:49:39.442Z,70.86
2018-04-07T03:52:08.501Z,73.88
2018-04-07T03:54:37.586Z,70.79
2018-04-07T03:57:06.875Z,71.66
2018-04-07T03:59:36.171Z,71.57
2018-04-07T04:02:05.860Z,71.60
2018-04-07T04:04:35.089Z,73.09
2018-04-07T04:07:04.412Z,73.46
2018-04-07T04:09:33.616Z,69.94
2018-04-07T04:12:02.763Z,68.93
2018-04-07T04:14:31.774Z,67.30
2018-04-07T04:17:00.901Z,69.95
2018-04-07T04:19:30.296Z,63.31
2018-04-07T04:21:59.449Z,55.71
2018-04-07T04:24:28.632Z,54.08
2018-04-07T04:26:57.761Z,52.36
2018-04-07T04:29:26.837Z,50.39
2018-04-07T04:31:56.096Z,51.32
2018-04-07T04:34:25.088Z,50.09
2018-04-07T04:36:54.135Z,48.92
2018-04-07T04:39:23.502Z,47.64
2018-04-07T04:41:52.529Z,47.46
2018-04-07T04:44:21.537Z,47.77
2018-04-07T04:46:50.755Z,46.19
2018-04-07T04:49:19.977Z,47.09
2018-04-07T04:51:49.039Z,46.80
2018-04-07T04:54:18.027Z,46.51
2018-04-07T04:56:47.107Z,46.92
2018-04-07T04:59:16.450Z,44.92
2018-04-07T05:01:45.505Z,44.29
2018-04-07T05:04:14.594Z,44.32
2018-04-07T05:06:43.858Z,43.66
2018-04-07T05:09:13.042Z,43.90
2018-04-07T05:11:42.142Z,42.94
2018-04-07T05:14:11.139Z,43.34
2018-04-07T05:16:40.417Z,43.79
2018-04-07T05:19:09.617Z,42.60
2018-04-07T05:21:38.909Z,41.90
2018-04-07T05:24:07.935Z,42.19
2018-04-07T05:26:36.955Z,42.78
2018-04-07T05:29:06.175Z,41.97
2018-04-07T05:31:35.509Z,41.88
2018-04-07T05:34:04.738Z,41.75
2018-04-07T05:36:34.490Z,40.79
2018-04-07T05:39:03.736Z,40.61
2018-04-07T05:41:32.847Z,40.54
2018-04-07T05:44:02.074Z,40.25
2018-04-07T05:46:31.438Z,39.57
2018-04-07T05:49:00.591Z,40.38
2018-04-07T05:51:29.941Z,40.57
2018-04-07T05:53:59.190Z,39.57
2018-04-07T05:56:28.272Z,41.73
2018-04-07T05:58:58.250Z,45.76
2018-04-07T06:01:27.340Z,49.68
2018-04-07T06:03:56.401Z,52.44
2018-04-07T06:06:25.524Z,52.88
2018-04-07T06:08:54.739Z,55.63
2018-04-07T06:11:23.848Z,59.12
2018-04-07T06:13:52.945Z,61.03
2018-04-07T06:16:22.011Z,61.16
2018-04-07T06:18:51.302Z,59.17
2018-04-07T06:21:20.361Z,60.35
2018-04-07T06:23:49.533Z,58.25
2018-04-07T06:26:18.527Z,59.21
2018-04-07T06:28:47.909Z,58.84
2018-04-07T06:31:17.778Z,58.52
2018-04-07T06:33:46.809Z,57.28
2018-04-07T06:36:16.025Z,55.28
2018-04-07T06:38:45.574Z,53.60
2018-04-07T06:41:14.731Z,54.93
2018-04-07T06:43:43.864Z,54.45
2018-04-07T06:46:13.101Z,53.81
2018-04-07T06:48:42.327Z,52.28
2018-04-07T06:51:11.506Z,48.75
2018-04-07T06:53:40.562Z,47.54
2018-04-07T06:56:09.925Z,46.37
2018-04-07T06:58:38.949Z,42.19
2018-04-07T07:01:08.026Z,45.01
2018-04-07T07:03:37.141Z,40.03
2018-04-07T07:06:06.109Z,41.03
2018-04-07T07:08:35.237Z,39.84
2018-04-07T07:11:04.310Z,39.23
2018-04-07T07:13:33.384Z,40.19
2018-04-07T07:16:02.409Z,39.80
2018-04-07T07:18:31.424Z,38.61
2018-04-07T07:21:00.561Z,39.20
2018-04-07T07:23:29.727Z,39.96
2018-04-07T07:25:58.813Z,39.03
2018-04-07T07:28:27.975Z,38.83
2018-04-07T07:30:57.061Z,39.02
2018-04-07T07:33:26.077Z,38.65
2018-04-07T07:35:55.143Z,38.42
2018-04-07T07:38:24.233Z,38.43
2018-04-07T07:40:53.321Z,39.69
2018-04-07T07:43:22.385Z,39.20
2018-04-07T07:45:51.549Z,38.86
2018-04-07T07:48:20.791Z,38.54
2018-04-07T07:50:49.892Z,38.46
2018-04-07T07:53:18.874Z,39.81
2018-04-07T07:55:48.133Z,39.79
2018-04-07T07:58:17.211Z,38.75
2018-04-07T08:00:46.362Z,36.47
2018-04-07T08:03:15.575Z,36.41
2018-04-07T08:05:44.690Z,37.57
2018-04-07T08:08:14.023Z,37.45
2018-04-07T08:10:43.223Z,36.71
2018-04-07T08:13:13.102Z,35.94
2018-04-07T08:15:42.173Z,38.08
2018-04-07T08:18:11.335Z,37.36
2018-04-07T08:20:40.616Z,37.68
2018-04-07T08:23:09.742Z,38.85
2018-04-07T08:25:38.818Z,39.59
2018-04-07T08:28:07.879Z,40.54
2018-04-07T08:30:37.025Z,41.94
2018-04-07T08:33:06.026Z,42.48
2018-04-07T08:35:35.308Z,39.72
2018-04-07T08:38:04.470Z,40.16
2018-04-07T08:40:33.719Z,40.22
2018-04-07T08:43:02.856Z,40.63
2018-04-07T08:45:31.931Z,40.13
2018-04-07T08:48:01.266Z,38.47
2018-04-07T08:50:30.511Z,39.92
2018-04-07T08:52:59.636Z,39.01
2018-04-07T08:55:28.977Z,37.91
2018-04-07T08:57:58.186Z,36.91
2018-04-07T09:00:27.461Z,35.17
2018-04-07T09:02:56.661Z,36.63
2018-04-07T09:05:25.898Z,35.61
2018-04-07T09:07:55.208Z,36.18
2018-04-07T09:10:24.373Z,38.33
2018-04-07T09:12:53.439Z,37.63
2018-04-07T09:15:22.532Z,37.97
2018-04-07T09:17:51.829Z,38.18
2018-04-07T09:20:20.846Z,38.80
2018-04-07T09:22:50.037Z,38.41
2018-04-07T09:25:19.402Z,39.95
2018-04-07T09:27:48.577Z,39.53
2018-04-07T09:30:17.595Z,38.59
2018-04-07T09:32:46.639Z,38.52
2018-04-07T09:35:15.622Z,40.12
2018-04-07T09:37:44.757Z,39.46
2018-04-07T09:40:13.759Z,38.83
2018-04-07T09:42:42.864Z,38.70
2018-04-07T09:45:12.135Z,40.94
2018-04-07T09:47:41.346Z,38.93
2018-04-07T09:50:10.445Z,39.17
2018-04-07T09:52:39.571Z,39.35
2018-04-07T09:55:08.587Z,39.89
2018-04-07T09:57:37.573Z,39.40
2018-04-07T10:00:06.703Z,39.25
2018-04-07T10:02:35.868Z,40.69
2018-04-07T10:05:05.005Z,41.63
2018-04-07T10:07:34.110Z,41.39
2018-04-07T10:10:03.182Z,41.45
2018-04-07T10:12:32.583Z,42.25
2018-04-07T10:15:01.876Z,42.49
2018-04-07T10:17:30.988Z,42.48
2018-04-07T10:20:00.077Z,43.73
2018-04-07T10:22:29.332Z,43.37
2018-04-07T10:24:58.347Z,42.96
2018-04-07T10:27:27.510Z,43.51
2018-04-07T10:29:56.453Z,44.55
2018-04-07T10:32:25.614Z,46.54
2018-04-07T10:34:54.718Z,47.20
2018-04-07T10:37:23.765Z,47.48
2018-04-07T10:39:52.903Z,48.14
2018-04-07T10:42:22.198Z,49.25
2018-04-07T10:44:51.509Z,50.66
2018-04-07T10:47:20.662Z,51.79
2018-04-07T10:49:49.773Z,51.86
2018-04-07T10:52:18.943Z,49.02
2018-04-07T10:54:48.089Z,48.73
2018-04-07T10:57:17.315Z,50.89
2018-04-07T10:59:46.700Z,50.59
2018-04-07T11:02:15.796Z,52.48
2018-04-07T11:04:44.931Z,52.89
2018-04-07T11:07:14.192Z,52.95
2018-04-07T11:09:43.343Z,53.42
2018-04-07T11:12:12.426Z,51.28
2018-04-07T11:14:41.621Z,51.63
2018-04-07T11:17:10.865Z,50.63
2018-04-07T11:19:40.061Z,50.07
2018-04-07T11:22:09.230Z,50.99
2018-04-07T11:24:38.521Z,51.21
2018-04-07T11:27:07.890Z,49.94
2018-04-07T11:29:36.973Z,50.06
2018-04-07T11:32:06.186Z,50.07
2018-04-07T11:34:35.281Z,49.60
2018-04-07T11:37:04.423Z,50.00
2018-04-07T11:39:33.419Z,49.33
2018-04-07T11:42:02.453Z,48.21
2018-04-07T11:44:31.557Z,47.39
2018-04-07T11:47:00.630Z,47.09
2018-04-07T11:49:29.635Z,47.02
2018-04-07T11:51:58.726Z,47.70
2018-04-07T11:54:27.747Z,46.12
2018-04-07T11:56:56.908Z,45.76
2018-04-07T11:59:25.936Z,44.84
2018-04-07T12:01:55.169Z,44.18
2018-04-07T12:04:24.213Z,43.09
2018-04-07T12:06:53.359Z,42.77
2018-04-07T12:09:22.341Z,42.88
2018-04-07T12:11:51.401Z,42.07
2018-04-07T12:14:20.355Z,41.77
2018-04-07T12:16:49.394Z,42.36
2018-04-07T12:19:18.398Z,42.47
2018-04-07T12:21:47.449Z,45.17
2018-04-07T12:24:16.379Z,45.55
2018-04-07T12:26:45.395Z,45.95
2018-04-07T12:29:14.668Z,49.00
2018-04-07T12:31:44.516Z,48.92
2018-04-07T12:34:13.703Z,49.64
2018-04-07T12:36:42.977Z,48.47
2018-04-07T12:39:12.309Z,50.87
2018-04-07T12:41:41.378Z,50.08
2018-04-07T12:44:11.407Z,50.26
2018-04-07T12:46:40.509Z,50.79
2018-04-07T12:49:09.477Z,49.56
2018-04-07T12:51:38.455Z,50.30
2018-04-07T12:54:07.613Z,51.21
2018-04-07T12:56:36.591Z,52.03
2018-04-07T12:59:05.642Z,52.45
2018-04-07T13:01:34.670Z,54.37
2018-04-07T13:04:03.681Z,54.01
2018-04-07T13:06:32.666Z,54.37
2018-04-07T13:09:01.679Z,56.40
2018-04-07T13:11:30.793Z,56.01
2018-04-07T13:14:00.166Z,56.63
2018-04-07T13:16:29.486Z,57.74
2018-04-07T13:18:58.634Z,58.01
2018-04-07T13:21:27.793Z,58.40
2018-04-07T13:23:56.913Z,59.73
2018-04-07T13:26:27.017Z,60.57
2018-04-07T13:28:56.145Z,61.32
2018-04-07T13:31:25.211Z,61.62
2018-04-07T13:33:54.360Z,61.38
2018-04-07T13:36:23.461Z,61.60
2018-04-07T13:38:52.446Z,62.12
2018-04-07T13:41:21.540Z,61.57
2018-04-07T13:43:50.540Z,63.66
2018-04-07T13:46:19.786Z,62.25
2018-04-07T13:48:48.925Z,63.03
2018-04-07T13:51:18.207Z,62.71
2018-04-07T13:53:47.435Z,63.22
2018-04-07T13:56:16.443Z,62.52
2018-04-07T13:58:45.652Z,62.86
2018-04-07T14:01:14.929Z,61.99
2018-04-07T14:03:44.113Z,62.43
2018-04-07T14:06:13.370Z,63.17
2018-04-07T14:08:42.545Z,61.83
2018-04-07T14:11:11.614Z,61.63
2018-04-07T14:13:40.879Z,62.15
2018-04-07T14:16:09.961Z,62.17
2018-04-07T14:18:38.878Z,63.01
2018-04-07T14:21:07.923Z,61.42
2018-04-07T14:23:37.074Z,59.77
2018-04-07T14:26:06.194Z,58.38
2018-04-07T14:28:35.353Z,56.43
2018-04-07T14:31:05.017Z,57.84
2018-04-07T14:33:34.104Z,57.51
2018-04-07T14:36:03.246Z,58.20
2018-04-07T14:38:32.614Z,56.83
2018-04-07T14:41:01.598Z,55.57
2018-04-07T14:43:30.747Z,55.58
2018-04-07T14:45:59.992Z,54.75
2018-04-07T14:48:28.975Z,51.11
2018-04-07T14:50:58.139Z,51.34
2018-04-07T14:53:27.388Z,50.94
2018-04-07T14:55:56.603Z,49.97
2018-04-07T14:58:25.677Z,48.49
2018-04-07T15:00:55.078Z,49.55
2018-04-07T15:03:24.235Z,49.70
2018-04-07T15:05:53.436Z,49.57
2018-04-07T15:08:22.590Z,51.19
2018-04-07T15:10:52.485Z,49.27
2018-04-07T15:13:21.796Z,51.18
2018-04-07T15:15:50.953Z,50.89
2018-04-07T15:18:20.141Z,50.56
2018-04-07T15:20:49.392Z,50.98
2018-04-07T15:23:18.596Z,51.11
2018-04-07T15:25:47.715Z,54.00
2018-04-07T15:28:16.798Z,51.84
2018-04-07T15:30:45.807Z,50.93
2018-04-07T15:33:15.030Z,50.33
2018-04-07T15:35:44.522Z,49.55
2018-04-07T15:38:13.727Z,49.00
2018-04-07T15:40:43.077Z,50.00
2018-04-07T15:43:12.179Z,52.09
2018-04-07T15:45:41.159Z,51.89
2018-04-07T15:48:10.349Z,51.66
2018-04-07T15:50:39.697Z,51.87
2018-04-07T15:53:08.914Z,52.05
2018-04-07T15:55:38.302Z,53.23
2018-04-07T15:58:07.527Z,52.31
2018-04-07T16:00:36.581Z,51.20
2018-04-07T16:03:05.730Z,51.42
2018-04-07T16:05:34.811Z,51.76
2018-04-07T16:08:03.942Z,51.42
2018-04-07T16:10:33.207Z,53.47
2018-04-07T16:13:02.259Z,52.97
2018-04-07T16:15:31.349Z,55.45
2018-04-07T16:18:00.445Z,56.00
2018-04-07T16:20:29.555Z,56.64
2018-04-07T16:22:58.660Z,57.41
2018-04-07T16:25:27.718Z,58.21
2018-04-07T16:27:56.985Z,59.54
2018-04-07T16:30:26.237Z,59.44
2018-04-07T16:32:55.369Z,59.67
2018-04-07T16:35:24.489Z,60.24
2018-04-07T16:37:53.823Z,60.45
2018-04-07T16:40:22.866Z,61.25
2018-04-07T16:42:51.845Z,62.13
2018-04-07T16:45:20.899Z,62.22
2018-04-07T16:47:50.589Z,61.91
2018-04-07T16:50:19.888Z,61.69
2018-04-07T16:52:48.888Z,62.69
2018-04-07T16:55:17.998Z,62.76
2018-04-07T16:57:47.281Z,62.44
2018-04-07T17:00:16.368Z,62.45
2018-04-07T17:02:45.643Z,61.92
2018-04-07T17:05:14.813Z,62.65
2018-04-07T17:07:43.783Z,62.08
2018-04-07T17:10:13.653Z,62.05
2018-04-07T17:12:42.662Z,62.86
2018-04-07T17:15:11.644Z,62.71
2018-04-07T17:17:40.677Z,62.91
2018-04-07T17:20:09.858Z,63.76
2018-04-07T17:22:39.158Z,63.36
2018-04-07T17:25:08.158Z,62.74
2018-04-07T17:27:37.112Z,62.59
2018-04-07T17:30:06.237Z,63.16
2018-04-07T17:32:35.186Z,64.26
2018-04-07T17:35:04.168Z,64.04
2018-04-07T17:37:33.248Z,64.03
2018-04-07T17:40:02.338Z,63.78
2018-04-07T17:42:31.339Z,64.37
2018-04-07T17:45:00.413Z,64.75
2018-04-07T17:47:29.712Z,64.70
2018-04-07T17:49:58.939Z,64.77
2018-04-07T17:52:28.261Z,65.13
2018-04-07T17:54:57.203Z,65.21
2018-04-07T17:57:26.257Z,65.25
2018-04-07T17:59:55.293Z,65.01
2018-04-07T18:02:24.358Z,65.70
2018-04-07T18:04:53.406Z,66.79
2018-04-07T18:07:22.363Z,66.62
2018-04-07T18:09:51.367Z,66.77
2018-04-07T18:12:20.449Z,66.95
2018-04-07T18:14:49.551Z,67.20
2018-04-07T18:17:18.571Z,66.95
2018-04-07T18:19:47.791Z,65.90
2018-04-07T18:22:16.899Z,65.95
2018-04-07T18:24:46.099Z,66.45
2018-04-07T18:27:15.103Z,65.68
2018-04-07T18:29:44.830Z,65.04
2018-04-07T18:32:14.111Z,65.95
2018-04-07T18:34:43.337Z,65.60
2018-04-07T18:37:12.396Z,66.03
2018-04-07T18:39:41.501Z,66.47
2018-04-07T18:42:10.526Z,68.43
2018-04-07T18:44:39.619Z,67.79
2018-04-07T18:47:08.761Z,66.96
2018-04-07T18:49:37.849Z,66.58
2018-04-07T18:52:07.439Z,66.60
2018-04-07T18:54:36.445Z,67.36
2018-04-07T18:57:05.505Z,67.68
2018-04-07T18:59:34.482Z,67.28
2018-04-07T19:02:03.489Z,68.19
2018-04-07T19:04:32.498Z,67.22
2018-04-07T19:07:01.569Z,67.91
2018-04-07T19:09:30.814Z,68.35
2018-04-07T19:11:59.905Z,68.14
2018-04-07T19:14:28.885Z,69.48
2018-04-07T19:16:57.831Z,69.52
2018-04-07T19:19:26.841Z,69.25
2018-04-07T19:21:56.034Z,69.12
2018-04-07T19:24:25.053Z,69.84
2018-04-07T19:26:54.224Z,69.11
2018-04-07T19:29:23.371Z,68.08
2018-04-07T19:31:52.561Z,66.90
2018-04-07T19:34:21.563Z,67.85
2018-04-07T19:36:50.785Z,67.11
2018-04-07T19:39:19.816Z,66.50
2018-04-07T19:41:49.034Z,66.64
2018-04-07T19:44:18.434Z,67.32
2018-04-07T19:46:47.545Z,66.92
2018-04-07T19:49:16.656Z,67.69
2018-04-07T19:51:45.786Z,67.44
2018-04-07T19:54:14.898Z,66.88
2018-04-07T19:56:43.951Z,66.95
2018-04-07T19:59:12.967Z,66.62
2018-04-07T20:01:42.027Z,66.30
2018-04-07T20:04:11.072Z,65.20
2018-04-07T20:06:40.224Z,64.11
2018-04-07T20:09:09.321Z,64.93
2018-04-07T20:11:38.498Z,64.36
2018-04-07T20:14:07.821Z,64.57
2018-04-07T20:16:36.885Z,64.94
2018-04-07T20:19:05.885Z,64.48
2018-04-07T20:21:34.917Z,66.32
2018-04-07T20:24:04.026Z,67.82
2018-04-07T20:26:32.989Z,67.47
2018-04-07T20:29:02.058Z,66.72
2018-04-07T20:31:31.051Z,66.01
2018-04-07T20:33:59.977Z,65.21
2018-04-07T20:36:28.946Z,64.15
2018-04-07T20:38:58.167Z,64.07
2018-04-07T20:41:27.309Z,63.38
2018-04-07T20:43:56.542Z,63.21
2018-04-07T20:46:25.805Z,63.10
2018-04-07T20:48:55.265Z,63.19
2018-04-07T20:51:24.301Z,62.85
2018-04-07T20:53:53.408Z,62.91
2018-04-07T20:56:22.889Z,62.16
2018-04-07T20:58:52.166Z,62.76
2018-04-07T21:01:21.461Z,62.49
2018-04-07T21:03:50.518Z,61.87
2018-04-07T21:06:19.547Z,61.48
2018-04-07T21:08:48.556Z,61.49
2018-04-07T21:11:17.672Z,61.14
2018-04-07T21:13:46.653Z,61.09
2018-04-07T21:16:15.615Z,61.23
2018-04-07T21:18:44.806Z,61.49
2018-04-07T21:21:13.975Z,60.93
2018-04-07T21:23:43.105Z,60.73
2018-04-07T21:26:12.082Z,60.26
2018-04-07T21:28:41.167Z,59.96
2018-04-07T21:31:10.186Z,59.74
2018-04-07T21:33:39.326Z,60.29
2018-04-07T21:36:08.296Z,60.08
2018-04-07T21:38:37.709Z,59.89
2018-04-07T21:41:06.834Z,60.03
2018-04-07T21:43:36.241Z,59.79
2018-04-07T21:46:05.528Z,59.68
2018-04-07T21:48:34.818Z,59.81
2018-04-07T21:51:04.044Z,59.97
2018-04-07T21:53:33.356Z,60.00
2018-04-07T21:56:03.057Z,59.85
2018-04-07T21:58:32.511Z,59.17
2018-04-07T22:01:01.675Z,58.72
2018-04-07T22:03:30.763Z,58.76
2018-04-07T22:05:59.901Z,58.70
2018-04-07T22:08:28.806Z,58.84
2018-04-07T22:10:57.843Z,58.70
2018-04-07T22:13:26.965Z,58.25
2018-04-07T22:15:55.846Z,57.53
2018-04-07T22:18:24.869Z,57.71
2018-04-07T22:20:53.821Z,57.88
2018-04-07T22:23:22.701Z,58.48
2018-04-07T22:25:54.777Z,58.25
2018-04-07T22:28:26.937Z,58.12
2018-04-07T22:30:55.996Z,58.01
2018-04-07T22:33:25.099Z,57.90
2018-04-07T22:35:54.154Z,57.61
2018-04-07T22:38:23.235Z,57.08
2018-04-07T22:40:52.070Z,57.30
2018-04-07T22:43:20.930Z,57.71
2018-04-07T22:45:49.957Z,58.00
2018-04-07T22:48:18.885Z,57.52
2018-04-07T22:50:47.899Z,57.55
2018-04-07T22:53:16.872Z,57.83
2018-04-07T22:55:46.030Z,58.29
2018-04-07T22:58:14.921Z,58.24
2018-04-07T23:00:44.466Z,59.06
2018-04-07T23:03:13.683Z,58.45
2018-04-07T23:05:42.666Z,59.13
2018-04-07T23:08:11.561Z,59.30
2018-04-07T23:10:40.548Z,59.97
2018-04-07T23:13:09.687Z,59.37
2018-04-07T23:15:38.770Z,58.09
2018-04-07T23:18:07.777Z,58.95
2018-04-07T23:20:36.842Z,59.49
2018-04-07T23:23:08.059Z,60.77
2018-04-07T23:25:37.073Z,63.26
2018-04-07T23:28:06.066Z,64.95
2018-04-07T23:30:35.323Z,68.48
2018-04-07T23:33:04.892Z,71.93
2018-04-07T23:35:34.117Z,72.81
2018-04-07T23:38:03.324Z,73.28
2018-04-07T23:40:32.486Z,72.76
2018-04-07T23:43:01.507Z,71.56
2018-04-07T23:45:30.634Z,74.22
2018-04-07T23:47:59.662Z,74.12
2018-04-07T23:50:29.886Z,75.29
2018-04-07T23:52:59.190Z,75.68
2018-04-07T23:55:28.353Z,77.72
2018-04-07T23:57:57.392Z,78.84
